This is the latest recevied weather packets stored in our database for station/object G4KVI. If no packets are shown the sender has not sent any weather packets the latest 1 day(s).
| Time | Temp. | Humidity | Pressure | Rain* | Wind** | Luminosity | Snow |
|---|---|---|---|---|---|---|---|
| 1777995968 | 16.67° C | 45% | 1014.9 hPa | 0 mm | 1.34 m/s, 325° | 450 W/m² | - |
| 1777995668 | 16.11° C | 46% | 1014.7 hPa | 0 mm | 1.79 m/s, 315° | 462 W/m² | - |
| 1777995368 | 15.56° C | 47% | 1014.8 hPa | 0 mm | 1.79 m/s, 323° | 546 W/m² | - |
| 1777995068 | 16.11° C | 47% | 1015 hPa | 0 mm | 1.79 m/s, 355° | 575 W/m² | - |
| 1777994773 | 16.11° C | 46% | 1015 hPa | 0 mm | 1.34 m/s, 24° | 409 W/m² | - |
| 1777994468 | 15.56° C | 46% | 1015 hPa | 0 mm | 1.34 m/s, 22° | 570 W/m² | - |
| 1777994168 | 16.11° C | 46% | 1015 hPa | 0 mm | 1.79 m/s, 9° | 202 W/m² | - |
| 1777993868 | 16.11° C | 46% | 1015.1 hPa | 0 mm | 1.34 m/s, 29° | 656 W/m² | - |
| 1777993568 | 15.56° C | 46% | 1015.1 hPa | 0 mm | 1.34 m/s, 14° | 524 W/m² | - |
| 1777993268 | 15.56° C | 45% | 1014.9 hPa | 0 mm | 1.34 m/s, 346° | 463 W/m² | - |
| 1777992968 | 15° C | 46% | 1015 hPa | 0 mm | 1.34 m/s, 340° | 545 W/m² | - |
| 1777992668 | 15° C | 47% | 1015.2 hPa | 0 mm | 1.34 m/s, 349° | 212 W/m² | - |
| 1777992368 | 15.56° C | 46% | 1015.1 hPa | 0 mm | 1.79 m/s, 349° | 212 W/m² | - |
| 1777992068 | 16.11° C | 46% | 1015.2 hPa | 0 mm | 1.34 m/s, 11° | 243 W/m² | - |
| 1777991768 | 15.56° C | 46% | 1015.4 hPa | 0 mm | 0.89 m/s, 52° | 629 W/m² | - |
| 1777991468 | 15.56° C | 46% | 1015.2 hPa | 0 mm | 1.34 m/s, 24° | 574 W/m² | - |
| 1777991168 | 15° C | 46% | 1015 hPa | 0 mm | 1.34 m/s, 359° | 562 W/m² | - |
| 1777990868 | 15.56° C | 46% | 1015.2 hPa | 0 mm | 1.79 m/s, 1° | 201 W/m² | - |
| 1777990568 | 16.11° C | 45% | 1015.2 hPa | 0 mm | 2.24 m/s, 346° | 279 W/m² | - |
| 1777990268 | 15.56° C | 46% | 1015.3 hPa | 0 mm | 1.79 m/s, 340° | 727 W/m² | - |
| 1777989968 | 15.56° C | 47% | 1015.4 hPa | 0 mm | 0.89 m/s, 28° | 799 W/m² | - |
| 1777989668 | 15° C | 50% | 1015.2 hPa | 0 mm | 1.34 m/s, 18° | 292 W/m² | - |
| 1777989368 | 15° C | 50% | 1015.3 hPa | 0 mm | 1.34 m/s, 358° | 239 W/m² | - |
| 1777989068 | 15° C | 47% | 1015.3 hPa | 0 mm | 1.34 m/s, 27° | 306 W/m² | - |
| 1777988768 | 14.44° C | 49% | 1015.4 hPa | 0 mm | 1.79 m/s, 47° | 270 W/m² | - |
* Rain latest hour (hover to see other rain measurements)
** Current wind speed in m/s (hover to see current wind gust speed)